Time;durP1;ratioP1;P1;durP2;ratioP2;P2;SDS_P1;SDS_P2;PMS_P1;PMS_P2;Temp;Humidity;BMP_temperature;BMP_pressure;BME280_temperature;BME280_humidity;BME280_pressure;Samples;Min_cycle;Max_cycle;Signal;HPM_P1;HPM_P2
2023/07/04 00:02:03;;;;;;;4.25;1.00;;;;;;;13.97;57.05;99562.69;4983294;28;20054;-43
2023/07/04 00:04:31;;;;;;;6.97;1.17;;;;;;;13.98;57.00;99563.50;4981582;28;20449;-51
2023/07/04 00:07:00;;;;;;;7.65;1.90;;;;;;;13.99;57.27;99573.06;4983369;28;20469;-48
2023/07/04 00:09:27;;;;;;;6.32;0.95;;;;;;;13.97;57.77;99564.41;4982570;28;20104;-46
2023/07/04 00:11:53;;;;;;;3.53;1.00;;;;;;;13.96;57.85;99571.38;4982657;28;20538;-46
2023/07/04 00:14:20;;;;;;;3.30;1.05;;;;;;;13.96;57.45;99573.13;4981587;28;20066;-45
2023/07/04 00:16:47;;;;;;;9.13;1.35;;;;;;;13.95;57.42;99568.81;4979345;28;20513;-51
2023/07/04 00:19:14;;;;;;;5.57;1.13;;;;;;;13.95;57.54;99563.63;4981199;28;20050;-54
2023/07/04 00:21:42;;;;;;;4.35;0.90;;;;;;;13.96;57.77;99565.31;4978791;28;20054;-46
2023/07/04 00:24:10;;;;;;;6.72;1.23;;;;;;;13.96;57.54;99560.97;4997420;28;20137;-44
2023/07/04 00:26:39;;;;;;;2.83;0.85;;;;;;;13.96;56.96;99560.13;5009841;28;20088;-49
2023/07/04 00:29:07;;;;;;;6.15;1.05;;;;;;;13.96;57.28;99554.91;5005713;28;20054;-49
2023/07/04 00:31:35;;;;;;;4.30;1.08;;;;;;;13.94;57.42;99549.72;4984689;28;20078;-52
2023/07/04 00:34:05;;;;;;;1.77;0.70;;;;;;;13.95;57.65;99548.84;5006693;28;20050;-42
2023/07/04 00:36:37;;;;;;;3.58;0.98;;;;;;;13.96;57.44;99544.50;4994261;28;20054;-43
2023/07/04 00:39:05;;;;;;;4.78;0.95;;;;;;;13.95;58.17;99537.59;4980765;28;20042;-49
2023/07/04 00:41:35;;;;;;;3.03;0.63;;;;;;;13.95;58.10;99540.19;4983853;28;20072;-46
2023/07/04 00:44:11;;;;;;;;;;;;;;;13.77;58.66;99550.13;4986064;28;20046;-44
2023/07/04 00:46:52;;;;;;;6.05;1.52;;;;;;;13.90;58.55;99550.69;4977483;28;19926;-47
2023/07/04 00:49:28;;;;;;;7.35;1.40;;;;;;;13.96;57.28;99558.38;4964948;28;20137;-48
2023/07/04 00:52:04;;;;;;;3.80;0.70;;;;;;;13.98;58.63;99550.50;4980456;28;20050;-43
2023/07/04 00:54:40;;;;;;;3.80;0.65;;;;;;;14.01;58.29;99545.22;4984947;28;20050;-49
2023/07/04 00:57:09;;;;;;;4.00;1.08;;;;;;;14.01;58.77;99529.59;4976564;28;20494;-43
2023/07/04 00:59:43;;;;;;;5.43;1.15;;;;;;;14.02;58.87;99533.94;4987156;28;20528;-43
2023/07/04 01:02:15;;;;;;;7.15;1.70;;;;;;;14.05;58.85;99533.00;4999917;28;20383;-48
2023/07/04 01:04:44;;;;;;;4.88;1.20;;;;;;;14.05;58.57;99533.00;4976023;28;20042;-46
2023/07/04 01:09:53;;;;;;;6.55;1.70;;;;;;;14.04;58.48;99532.13;5033876;27;20414;-50
2023/07/04 01:12:19;;;;;;;5.13;1.50;;;;;;;14.06;58.80;99538.16;5017685;28;20038;-45
2023/07/04 01:14:47;;;;;;;5.78;1.60;;;;;;;14.08;58.61;99548.56;5050904;28;20116;-50
2023/07/04 01:17:14;;;;;;;5.45;1.65;;;;;;;14.08;58.77;99549.38;5027598;28;20056;-46
2023/07/04 01:19:41;;;;;;;8.65;2.17;;;;;;;14.08;59.08;99541.56;5017156;28;20449;-44
2023/07/04 01:27:27;;;;;;;4.57;0.60;;;;;;;14.10;58.53;99538.94;5033305;28;20390;-42
2023/07/04 01:29:54;;;;;;;4.65;1.17;;;;;;;14.06;58.77;99545.97;5003387;28;20068;-49
2023/07/04 01:32:23;;;;;;;6.15;0.85;;;;;;;14.07;58.56;99547.69;5006119;28;20069;-46
2023/07/04 01:34:50;;;;;;;7.40;1.08;;;;;;;14.04;59.05;99542.53;5008085;28;20758;-46
2023/07/04 01:37:18;;;;;;;5.07;1.25;;;;;;;14.05;58.79;99541.66;5001210;28;20434;-46
2023/07/04 01:39:45;;;;;;;8.30;1.60;;;;;;;14.04;58.89;99545.16;5009859;28;20662;-43
2023/07/04 01:42:11;;;;;;;3.95;1.25;;;;;;;14.01;59.60;99537.41;5003415;28;20042;-46
2023/07/04 01:44:38;;;;;;;3.38;0.60;;;;;;;14.00;59.17;99535.72;5010042;28;20431;-43
2023/07/04 01:47:05;;;;;;;10.27;1.20;;;;;;;13.98;59.35;99538.34;5005938;28;20128;-47
2023/07/04 01:49:32;;;;;;;4.38;1.33;;;;;;;13.99;59.80;99540.03;5004749;28;20054;-48
2023/07/04 01:51:59;;;;;;;3.75;1.00;;;;;;;13.98;58.73;99542.69;4997201;28;20046;-47
2023/07/04 01:54:26;;;;;;;15.80;1.50;;;;;;;13.96;59.09;99534.94;5002228;28;20757;-50
2023/07/04 01:56:52;;;;;;;4.05;1.00;;;;;;;13.96;59.59;99534.94;5008230;28;20046;-47
2023/07/04 01:59:20;;;;;;;3.47;0.90;;;;;;;13.95;59.30;99535.81;4997309;28;20061;-40
2023/07/04 02:01:48;;;;;;;6.85;0.80;;;;;;;13.95;59.25;99538.41;5003321;28;20056;-45
2023/07/04 02:04:15;;;;;;;7.95;1.85;;;;;;;13.94;60.06;99535.84;4990608;28;20046;-45
2023/07/04 02:06:42;;;;;;;6.45;0.93;;;;;;;13.91;60.01;99536.78;5007509;28;20409;-49
2023/07/04 02:09:09;;;;;;;5.90;1.10;;;;;;;13.90;59.75;99544.63;5002588;28;20387;-52
2023/07/04 02:11:36;;;;;;;5.88;0.68;;;;;;;13.86;59.56;99534.31;5004020;28;20053;-46
2023/07/04 02:14:02;;;;;;;6.53;1.55;;;;;;;13.85;59.29;99537.78;5002104;28;20057;-47
2023/07/04 02:16:29;;;;;;;5.28;0.70;;;;;;;13.84;59.94;99556.03;4999941;28;20044;-46
2023/07/04 02:18:56;;;;;;;6.53;1.27;;;;;;;13.83;59.52;99544.81;5002270;28;20123;-39
2023/07/04 02:21:26;;;;;;;5.80;1.33;;;;;;;13.83;59.53;99550.00;5010076;28;20054;-46
2023/07/04 02:23:54;;;;;;;7.00;0.90;;;;;;;13.83;60.16;99539.59;4997685;28;20184;-45
2023/07/04 02:26:21;;;;;;;7.57;0.68;;;;;;;13.81;60.12;99530.94;4999152;28;20061;-48
2023/07/04 02:28:47;;;;;;;4.25;1.10;;;;;;;13.79;61.03;99537.09;5002330;28;20046;-50
2023/07/04 02:31:14;;;;;;;7.18;1.15;;;;;;;13.78;59.84;99541.44;5013792;28;20465;-44
2023/07/04 02:33:41;;;;;;;5.55;0.93;;;;;;;13.76;60.55;99535.44;5014416;28;20104;-45
2023/07/04 02:36:11;;;;;;;4.22;0.90;;;;;;;13.77;60.21;99537.13;5001710;28;20057;-44
2023/07/04 02:38:39;;;;;;;3.85;1.10;;;;;;;13.76;59.82;99527.63;4990455;28;20141;-41
2023/07/04 02:41:07;;;;;;;3.92;0.98;;;;;;;13.77;60.57;99534.53;4991293;28;20081;-43
2023/07/04 02:43:35;;;;;;;4.72;0.82;;;;;;;13.75;60.00;99531.97;4986891;28;20061;-45
2023/07/04 02:46:05;;;;;;;6.50;0.60;;;;;;;13.74;60.12;99535.47;4997446;28;20592;-43
2023/07/04 02:48:32;;;;;;;4.43;1.00;;;;;;;13.74;60.98;99529.38;4994965;28;20046;-47
2023/07/04 02:51:00;;;;;;;4.75;0.95;;;;;;;13.72;60.67;99531.19;5002949;28;20052;-42
2023/07/04 02:53:27;;;;;;;10.88;1.60;;;;;;;13.72;61.00;99533.78;4986858;28;20065;-43
2023/07/04 02:55:55;;;;;;;5.65;0.80;;;;;;;13.73;60.30;99522.47;4994556;28;20047;-46
2023/07/04 02:58:22;;;;;;;9.63;1.13;;;;;;;13.71;60.82;99519.91;4980650;28;20046;-44
2023/07/04 03:00:50;;;;;;;7.68;0.73;;;;;;;13.70;61.16;99514.75;4993241;28;20513;-47
2023/07/04 03:03:17;;;;;;;6.35;0.90;;;;;;;13.69;60.51;99515.66;4966755;28;20054;-50
2023/07/04 03:05:45;;;;;;;7.43;0.90;;;;;;;13.67;60.37;99513.06;4982389;28;20047;-46
2023/07/04 03:08:12;;;;;;;7.75;0.98;;;;;;;13.67;61.32;99512.22;4992577;28;21798;-44
2023/07/04 03:10:39;;;;;;;5.05;0.85;;;;;;;13.68;60.81;99508.75;4985881;28;20050;-43
2023/07/04 03:13:05;;;;;;;2.83;0.75;;;;;;;13.66;60.92;99505.31;4986529;28;20046;-42
2023/07/04 03:15:32;;;;;;;3.55;0.70;;;;;;;13.64;61.11;99507.94;4979228;28;20049;-44
2023/07/04 03:17:58;;;;;;;3.08;1.10;;;;;;;13.64;61.22;99512.31;4983229;28;20046;-44
2023/07/04 03:20:25;;;;;;;6.88;0.80;;;;;;;13.62;61.67;99510.56;4987331;28;20055;-46
2023/07/04 03:22:52;;;;;;;12.68;1.60;;;;;;;13.62;61.63;99518.38;4987118;28;20522;-50
2023/07/04 03:25:19;;;;;;;5.97;1.30;;;;;;;13.62;61.09;99520.97;4986239;28;20054;-46
2023/07/04 03:27:46;;;;;;;6.35;1.13;;;;;;;13.62;61.57;99520.97;4992864;28;20133;-44
2023/07/04 03:30:13;;;;;;;7.88;1.73;;;;;;;13.64;60.98;99523.56;4984035;28;20567;-41
2023/07/04 03:32:39;;;;;;;5.22;1.38;;;;;;;13.64;61.43;99520.13;4994834;28;20042;-48
2023/07/04 03:35:08;;;;;;;5.72;1.83;;;;;;;13.64;61.62;99514.91;4987389;28;20057;-43
2023/07/04 03:37:36;;;;;;;6.97;1.25;;;;;;;13.67;61.10;99512.22;4986337;28;20046;-43
2023/07/04 03:40:07;;;;;;;6.75;1.52;;;;;;;13.65;62.10;99520.06;4994165;28;20108;-46
2023/07/04 03:42:35;;;;;;;5.57;0.75;;;;;;;13.66;61.91;99515.72;4978108;28;20061;-53
2023/07/04 03:45:03;;;;;;;3.33;1.13;;;;;;;13.65;61.89;99514.00;4981401;28;20729;-48
2023/07/04 03:47:30;;;;;;;6.38;1.23;;;;;;;13.62;61.88;99510.56;4990376;28;20056;-50
2023/07/04 03:49:57;;;;;;;4.20;1.33;;;;;;;13.62;61.71;99514.94;4984246;28;20666;-48
2023/07/04 03:52:24;;;;;;;7.25;1.38;;;;;;;13.60;62.67;99512.38;4987475;28;20514;-42
2023/07/04 03:54:51;;;;;;;7.18;1.30;;;;;;;13.58;61.36;99508.94;4986152;28;20045;-41
2023/07/04 03:57:17;;;;;;;7.03;1.35;;;;;;;13.57;62.19;99517.66;4985168;28;20057;-45
2023/07/04 03:59:44;;;;;;;5.35;1.52;;;;;;;13.55;61.79;99513.38;4981586;28;20073;-46
2023/07/04 04:02:11;;;;;;;5.97;1.67;;;;;;;13.54;61.97;99522.91;4993899;28;20046;-44
2023/07/04 04:04:39;;;;;;;7.93;1.77;;;;;;;13.53;62.19;99520.34;4989951;28;20521;-46
2023/07/04 04:07:07;;;;;;;7.55;1.35;;;;;;;13.51;61.85;99520.38;4985578;28;20042;-53
2023/07/04 04:09:35;;;;;;;7.88;2.50;;;;;;;13.48;61.98;99518.72;4989593;28;20058;-46
2023/07/04 04:12:02;;;;;;;7.50;1.52;;;;;;;13.47;62.87;99524.78;4990479;28;20066;-40
2023/07/04 04:14:29;;;;;;;10.57;1.38;;;;;;;13.49;62.15;99519.56;4983097;28;20061;-46
2023/07/04 04:16:57;;;;;;;10.50;0.85;;;;;;;13.51;62.55;99528.19;4985498;28;20047;-42
2023/07/04 04:19:25;;;;;;;6.55;1.23;;;;;;;13.53;62.43;99529.00;4993244;28;20303;-40
2023/07/04 04:21:53;;;;;;;7.78;1.52;;;;;;;13.56;62.60;99536.75;4989662;28;20075;-48
2023/07/04 04:24:21;;;;;;;5.93;0.93;;;;;;;13.59;61.73;99531.50;4983849;28;20400;-43
2023/07/04 04:26:48;;;;;;;7.35;2.28;;;;;;;13.61;62.39;99540.09;4996145;28;20132;-49
2023/07/04 04:29:17;;;;;;;4.68;0.95;;;;;;;13.62;62.22;99536.59;4988317;28;20052;-48
2023/07/04 04:31:46;;;;;;;6.63;1.50;;;;;;;13.63;62.35;99534.84;4984233;28;20073;-40
2023/07/04 04:34:13;;;;;;;5.38;1.42;;;;;;;13.64;61.76;99539.16;4983213;28;20042;-46
2023/07/04 04:36:40;;;;;;;7.13;1.25;;;;;;;13.66;62.61;99541.72;4985728;28;20046;-51
2023/07/04 04:39:07;;;;;;;3.42;0.77;;;;;;;13.69;62.66;99531.25;4993175;28;20058;-46
2023/07/04 04:41:33;;;;;;;6.30;0.90;;;;;;;13.71;62.63;99529.50;4982468;28;20129;-45
2023/07/04 04:44:04;;;;;;;3.40;1.27;;;;;;;13.72;62.15;99520.78;4982460;28;20081;-50
2023/07/04 04:46:32;;;;;;;5.93;1.25;;;;;;;13.75;62.29;99520.72;4991751;28;20046;-45
2023/07/04 04:48:58;;;;;;;4.78;0.95;;;;;;;13.78;63.13;99520.59;4984808;28;20698;-44
2023/07/04 04:51:25;;;;;;;8.27;1.38;;;;;;;13.79;63.21;99524.94;4974582;28;20457;-46
2023/07/04 04:53:52;;;;;;;14.90;1.10;;;;;;;13.84;62.52;99520.47;4988052;28;20046;-48
2023/07/04 04:56:18;;;;;;;7.40;0.93;;;;;;;13.87;62.05;99520.41;4987023;28;20052;-41
2023/07/04 04:58:45;;;;;;;5.18;1.58;;;;;;;13.93;61.80;99521.13;4993043;28;20557;-52
2023/07/04 05:01:22;;;;;;;4.43;0.82;;;;;;;13.93;62.55;99513.31;4987325;28;20046;-50
2023/07/04 05:03:52;;;;;;;10.40;1.48;;;;;;;13.98;61.71;99529.66;4987270;28;20046;-39
2023/07/04 05:06:22;;;;;;;6.72;1.17;;;;;;;14.00;62.48;99528.75;4988127;28;20536;-44
2023/07/04 05:08:50;;;;;;;;;;;;;;;13.86;62.58;99529.13;4981521;28;20051;-43
2023/07/04 05:11:16;;;;;;;4.10;1.17;;;;;;;14.02;62.02;99531.34;4991219;28;19925;-44
2023/07/04 05:13:45;;;;;;;7.72;0.95;;;;;;;14.05;62.48;99517.38;4987171;28;20133;-46
2023/07/04 05:16:15;;;;;;;6.18;1.23;;;;;;;14.08;62.67;99525.94;4981092;28;20130;-44
2023/07/04 05:18:43;;;;;;;7.95;1.25;;;;;;;14.11;62.62;99523.28;4990359;28;20042;-45
2023/07/04 05:21:14;;;;;;;6.80;1.02;;;;;;;14.15;61.66;99524.03;4985868;28;20073;-50
2023/07/04 05:23:43;;;;;;;8.65;1.42;;;;;;;14.18;62.45;99534.38;4972568;28;20073;-44
2023/07/04 05:26:13;;;;;;;3.38;0.77;;;;;;;14.18;61.94;99536.16;4984019;28;20517;-46
2023/07/04 05:28:40;;;;;;;;;;;;;;;14.01;62.02;99537.41;4985882;28;20092;-47
2023/07/04 05:31:10;;;;;;;5.60;1.35;;;;;;;14.11;61.37;99541.50;4979432;28;19928;-46
2023/07/04 05:33:42;;;;;;;3.58;0.80;;;;;;;14.11;61.63;99544.09;4978358;28;20058;-45
2023/07/04 05:38:48;;;;;;;5.30;2.33;;;;;;;14.19;62.58;99545.66;5035269;28;20939;-44
2023/07/04 05:41:17;;;;;;;7.28;1.95;;;;;;;14.29;62.40;99541.06;5018462;28;21927;-46
2023/07/04 05:43:44;;;;;;;8.55;2.33;;;;;;;14.35;62.05;99541.75;5011981;28;20096;-44
2023/07/04 05:46:12;;;;;;;3.83;0.80;;;;;;;14.48;62.38;99536.19;5021895;28;20549;-45
2023/07/04 05:48:39;;;;;;;8.73;2.55;;;;;;;14.60;62.13;99538.50;5009954;28;20054;-43
2023/07/04 05:51:10;;;;;;;4.15;1.85;;;;;;;14.75;61.87;99538.94;5016975;28;20049;-49
2023/07/04 05:53:40;;;;;;;6.05;2.30;;;;;;;14.88;61.79;99532.53;5008952;28;20053;-44
2023/07/04 05:56:17;;;;;;;9.27;2.65;;;;;;;15.02;61.85;99539.94;5009385;28;20123;-48
2023/07/04 05:58:47;;;;;;;6.05;2.33;;;;;;;15.22;61.89;99535.03;5016093;28;20053;-44
2023/07/04 06:01:15;;;;;;;;;;;;;;;15.26;61.72;99528.81;5010924;28;20502;-48
2023/07/04 06:03:43;;;;;;;9.20;2.53;;;;;;;15.50;60.75;99539.41;5012001;28;19925;-47
2023/07/04 06:06:21;;;;;;;5.13;2.28;;;;;;;15.66;61.10;99538.00;5018797;28;20549;-45
2023/07/04 06:08:49;;;;;;;3.58;1.95;;;;;;;15.87;60.90;99550.44;5003880;28;20049;-45
2023/07/04 06:11:16;;;;;;;2.95;2.10;;;;;;;16.05;60.73;99549.00;5021124;28;20493;-47
2023/07/04 06:13:43;;;;;;;4.95;2.55;;;;;;;16.18;60.62;99539.81;5020824;28;20061;-54
2023/07/04 06:16:10;;;;;;;4.45;1.85;;;;;;;16.33;59.94;99540.19;5019302;28;20041;-45
2023/07/04 06:18:37;;;;;;;4.43;1.77;;;;;;;16.47;59.98;99538.84;5009886;28;20136;-47
2023/07/04 06:21:10;;;;;;;6.35;2.70;;;;;;;16.59;59.34;99543.66;5006133;28;20502;-47
2023/07/04 06:23:38;;;;;;;4.22;1.98;;;;;;;16.73;59.13;99551.00;5019142;28;20045;-49
2023/07/04 06:26:06;;;;;;;6.03;2.80;;;;;;;16.89;59.09;99540.81;5018087;28;20053;-47
2023/07/04 06:28:34;;;;;;;3.88;2.05;;;;;;;17.01;58.82;99549.13;5017915;28;20050;-47
2023/07/04 06:31:06;;;;;;;7.72;3.10;;;;;;;17.13;58.22;99553.94;5017628;28;20045;-48
2023/07/04 06:33:33;;;;;;;5.68;2.20;;;;;;;17.30;58.24;99560.28;5018600;28;20050;-46
2023/07/04 06:36:00;;;;;;;5.65;2.35;;;;;;;17.46;57.99;99555.28;5019049;28;20095;-42
2023/07/04 06:38:27;;;;;;;6.43;2.42;;;;;;;17.68;58.05;99555.31;5013087;28;20662;-46
2023/07/04 06:41:00;;;;;;;5.20;2.20;;;;;;;17.88;56.90;99561.50;5006309;28;20057;-48
2023/07/04 06:43:29;;;;;;;4.55;2.22;;;;;;;18.11;57.42;99557.09;5006341;28;20141;-50
2023/07/04 06:45:56;;;;;;;8.80;2.03;;;;;;;18.34;55.97;99555.28;5006209;28;20053;-46
2023/07/04 06:48:24;;;;;;;6.97;2.65;;;;;;;18.50;56.07;99564.16;5002827;28;20054;-42
2023/07/04 06:51:01;;;;;;;3.72;1.73;;;;;;;18.52;55.89;99571.09;4993802;28;20046;-46
2023/07/04 06:53:29;;;;;;;6.35;1.98;;;;;;;18.52;55.29;99571.09;4991694;28;20043;-43
2023/07/04 06:58:50;;;;;;;6.13;1.48;;;;;;;18.88;55.32;99567.78;5050198;28;20415;-50
2023/07/04 07:01:19;;;;;;;3.65;0.60;;;;;;;19.05;54.65;99566.16;5015788;28;20069;-46
2023/07/04 07:03:45;;;;;;;3.65;0.80;;;;;;;19.05;54.08;99574.03;4995389;28;20042;-50
2023/07/04 07:06:12;;;;;;;6.28;1.13;;;;;;;18.97;54.34;99577.84;4992538;28;20050;-45
2023/07/04 07:08:40;;;;;;;6.25;1.58;;;;;;;18.91;53.74;99580.75;4999298;28;20057;-45
2023/07/04 07:11:10;;;;;;;5.03;0.60;;;;;;;18.85;53.54;99583.66;4996281;28;20235;-47
2023/07/04 07:13:37;;;;;;;6.57;1.40;;;;;;;18.83;54.00;99590.72;4998416;28;20073;-47
2023/07/04 07:16:10;;;;;;;3.15;0.80;;;;;;;18.86;54.20;99583.59;4996710;28;20050;-43
2023/07/04 07:18:38;;;;;;;2.63;0.93;;;;;;;18.86;54.22;99582.75;4999764;28;20137;-46
2023/07/04 07:21:10;;;;;;;2.20;0.75;;;;;;;18.76;54.05;99584.91;5001822;28;20050;-42
2023/07/04 07:23:38;;;;;;;6.65;1.00;;;;;;;18.71;53.39;99581.66;4996227;28;20057;-47
2023/07/04 07:26:07;;;;;;;10.88;1.35;;;;;;;18.67;53.40;99569.59;5000371;28;20505;-42
2023/07/04 07:28:39;;;;;;;7.40;1.13;;;;;;;18.61;53.89;99575.97;4998534;28;20046;-49
2023/07/04 07:31:18;;;;;;;3.92;0.90;;;;;;;18.49;53.54;99565.09;4997141;28;20046;-44
2023/07/04 07:33:48;;;;;;;5.22;1.30;;;;;;;18.49;54.26;99562.47;4998020;28;20046;-48
2023/07/04 07:38:58;;;;;;;4.03;1.00;;;;;;;18.81;54.54;99576.84;5086507;27;20393;-51
2023/07/04 07:41:28;;;;;;;4.95;1.25;;;;;;;18.98;53.83;99584.81;5027941;28;20045;-46
2023/07/04 07:43:54;;;;;;;5.00;0.95;;;;;;;19.11;54.08;99589.50;5029253;28;20046;-44
2023/07/04 07:46:21;;;;;;;5.10;1.15;;;;;;;19.19;53.38;99591.81;5039800;28;20044;-44
2023/07/04 07:48:49;;;;;;;5.30;1.30;;;;;;;19.20;53.51;99594.34;5033070;28;20054;-45
2023/07/04 07:51:18;;;;;;;3.47;1.20;;;;;;;19.19;53.07;99587.41;5041102;28;20049;-50
2023/07/04 07:53:46;;;;;;;5.00;1.45;;;;;;;19.26;53.07;99578.31;5040906;28;20060;-50
2023/07/04 07:56:15;;;;;;;5.07;1.30;;;;;;;19.31;52.76;99579.88;5038025;28;20053;-49
2023/07/04 07:58:43;;;;;;;5.03;1.42;;;;;;;19.31;53.14;99582.50;5043355;28;20041;-50
2023/07/04 08:03:50;;;;;;;4.97;1.13;;;;;;;19.26;52.52;99575.69;5054836;27;20400;-52
2023/07/04 08:06:22;;;;;;;4.35;0.93;;;;;;;19.25;52.29;99573.97;5022674;28;20081;-41
2023/07/04 08:08:50;;;;;;;8.07;1.05;;;;;;;19.22;52.23;99582.00;5021155;28;20042;-50
2023/07/04 08:11:17;;;;;;;3.28;1.13;;;;;;;19.31;52.01;99585.13;5019086;28;20081;-45
2023/07/04 08:13:44;;;;;;;5.25;0.93;;;;;;;19.46;52.57;99584.41;5018238;28;20049;-45
2023/07/04 08:16:11;;;;;;;6.28;1.20;;;;;;;19.62;52.20;99594.19;5021547;28;20038;-46
2023/07/04 08:18:37;;;;;;;2.28;0.90;;;;;;;19.73;52.24;99601.56;5012955;28;20048;-46
2023/07/04 08:21:04;;;;;;;7.00;1.42;;;;;;;19.75;51.60;99599.69;5019451;28;20042;-52
2023/07/04 08:23:31;;;;;;;4.53;0.95;;;;;;;19.73;51.22;99594.50;5023314;28;20046;-48
2023/07/04 08:25:58;;;;;;;5.50;1.10;;;;;;;19.74;51.89;99596.22;5020841;28;20060;-44
2023/07/04 08:28:26;;;;;;;6.20;1.23;;;;;;;19.72;51.52;99592.81;5020454;28;20434;-45
2023/07/04 08:30:53;;;;;;;6.60;0.82;;;;;;;19.72;51.71;99590.19;5016677;28;20149;-46
2023/07/04 08:33:20;;;;;;;4.28;0.80;;;;;;;19.75;51.80;99595.28;5042400;28;20046;-41
2023/07/04 08:36:08;;;;;;;1.77;0.90;;;;;;;19.70;51.85;99585.94;5040168;28;20045;-43
2023/07/04 08:38:35;;;;;;;6.82;0.80;;;;;;;19.70;51.96;99591.19;5041734;28;20569;-43
2023/07/04 08:41:02;;;;;;;9.80;1.02;;;;;;;19.72;51.98;99600.69;5041314;28;20049;-48
2023/07/04 08:43:51;;;;;;;3.38;0.77;;;;;;;19.71;51.62;99593.75;5038641;28;20049;-48
2023/07/04 08:46:19;;;;;;;2.38;0.60;;;;;;;19.70;51.09;99596.44;5037222;28;20414;-48
2023/07/04 08:48:47;;;;;;;1.52;0.88;;;;;;;19.62;51.17;99588.94;5040700;28;20448;-48
2023/07/04 08:51:26;;;;;;;2.28;0.73;;;;;;;19.46;50.96;99586.19;5040628;28;20050;-48
2023/07/04 08:53:57;;;;;;;2.58;0.65;;;;;;;19.38;51.21;99591.78;5036814;28;20509;-49
2023/07/04 08:59:40;;;;;;;6.22;0.90;;;;;;;19.17;51.51;99593.63;5039413;28;20400;-49
2023/07/04 09:05:24;;;;;;;3.70;1.85;;;;;;;19.09;51.25;99607.13;5054594;27;20399;-46
2023/07/04 09:10:42;;;;;;;5.07;0.60;;;;;;;19.11;50.92;99613.13;5061721;27;20407;-43
2023/07/04 09:13:12;;;;;;;5.43;0.60;;;;;;;19.07;51.58;99614.19;5058615;28;20052;-49
2023/07/04 09:15:45;;;;;;;3.42;0.60;;;;;;;19.00;51.36;99610.97;5050781;28;20072;-46
2023/07/04 09:23:50;;;;;;;3.00;1.73;;;;;;;18.79;51.44;99616.28;5060498;27;20405;-48
2023/07/04 09:26:25;;;;;;;3.67;2.22;;;;;;;18.78;51.04;99624.19;5033106;28;20069;-50
2023/07/04 09:28:54;;;;;;;5.05;2.38;;;;;;;18.75;51.57;99631.28;5036804;28;20049;-48
2023/07/04 09:31:25;;;;;;;2.33;0.70;;;;;;;18.74;51.26;99629.56;5038448;28;20412;-45
2023/07/04 09:33:53;;;;;;;2.85;2.03;;;;;;;18.71;51.49;99634.94;5021143;28;20068;-46
2023/07/04 09:36:29;;;;;;;3.85;2.15;;;;;;;18.69;51.62;99646.44;5018075;28;20085;-40
2023/07/04 09:38:58;;;;;;;6.30;2.47;;;;;;;18.60;51.28;99643.28;5014588;28;20506;-40
2023/07/04 09:41:28;;;;;;;5.15;1.88;;;;;;;18.55;51.46;99647.88;5015079;28;20050;-42
2023/07/04 09:44:09;;;;;;;3.10;2.15;;;;;;;18.54;51.46;99642.72;5016133;28;20085;-46
2023/07/04 09:46:36;;;;;;;2.47;2.28;;;;;;;18.47;51.66;99632.47;5040848;28;20088;-49
2023/07/04 09:49:26;;;;;;;6.97;2.05;;;;;;;18.38;52.00;99638.13;5017609;28;20046;-45
2023/07/04 09:55:10;;;;;;;3.42;1.00;;;;;;;18.36;52.83;99634.69;5050545;27;20397;-51
2023/07/04 09:57:37;;;;;;;3.42;0.80;;;;;;;18.47;53.40;99631.59;5019746;28;20045;-51
2023/07/04 10:00:24;;;;;;;8.65;1.17;;;;;;;18.44;53.41;99632.59;5032790;28;20072;-41
2023/07/04 10:02:55;;;;;;;2.30;0.88;;;;;;;18.49;53.03;99628.03;5035141;28;20050;-43
2023/07/04 10:05:29;;;;;;;2.65;0.98;;;;;;;18.48;53.15;99620.22;5034529;28;20425;-52
2023/07/04 10:10:51;;;;;;;3.95;1.10;;;;;;;18.51;53.76;99614.84;5050172;28;20422;-51
2023/07/04 10:13:20;;;;;;;3.67;0.60;;;;;;;18.56;53.39;99609.38;5018437;28;20046;-48
2023/07/04 10:15:47;;;;;;;6.68;1.40;;;;;;;18.62;53.17;99609.13;5008395;28;20045;-44
2023/07/04 10:18:32;;;;;;;1.23;0.77;;;;;;;18.64;53.06;99612.53;5012068;28;20746;-47
2023/07/04 10:21:00;;;;;;;4.00;1.20;;;;;;;18.77;53.71;99622.50;5012572;28;20052;-44
2023/07/04 10:23:29;;;;;;;2.97;0.80;;;;;;;18.81;53.50;99614.41;5013516;28;20091;-48
2023/07/04 10:25:59;;;;;;;4.38;1.33;;;;;;;18.87;53.98;99626.41;5012092;28;20054;-46
2023/07/04 10:28:28;;;;;;;1.85;0.98;;;;;;;18.83;52.57;99622.22;5009547;28;20049;-46
2023/07/04 10:31:02;;;;;;;2.75;0.70;;;;;;;18.78;52.95;99621.59;5010011;28;20123;-53
2023/07/04 10:33:40;;;;;;;2.20;1.13;;;;;;;18.75;52.74;99619.94;4991749;28;20142;-43
2023/07/04 10:36:13;;;;;;;4.18;1.27;;;;;;;18.70;52.67;99614.91;4993166;28;20058;-45
2023/07/04 10:38:43;;;;;;;1.88;1.33;;;;;;;18.68;53.23;99614.09;4992829;28;20510;-50
2023/07/04 10:41:23;;;;;;;4.15;1.17;;;;;;;18.65;53.19;99614.25;4988042;28;20608;-45
2023/07/04 10:43:56;;;;;;;1.70;0.60;;;;;;;18.72;53.42;99613.06;4994905;28;20042;-43
2023/07/04 10:46:27;;;;;;;2.92;1.10;;;;;;;18.73;53.26;99613.91;4989226;28;20759;-54
2023/07/04 10:49:01;;;;;;;4.00;1.58;;;;;;;18.70;52.95;99620.13;4989551;28;20051;-49
2023/07/04 10:51:33;;;;;;;2.13;1.08;;;;;;;18.65;53.48;99619.50;4992060;28;20140;-47
2023/07/04 10:54:01;;;;;;;5.28;1.00;;;;;;;18.65;53.84;99618.63;4988235;28;20058;-49
2023/07/04 10:56:32;;;;;;;4.22;0.90;;;;;;;18.64;53.55;99617.78;4991979;28;20798;-49
2023/07/04 10:59:07;;;;;;;5.03;1.15;;;;;;;18.64;53.82;99617.78;4993615;28;20081;-44
2023/07/04 11:01:40;;;;;;;5.05;0.98;;;;;;;18.66;53.92;99621.19;4992723;28;20057;-47
2023/07/04 11:06:52;;;;;;;4.63;1.70;;;;;;;18.67;53.32;99625.50;5018398;28;20413;-44
2023/07/04 11:09:19;;;;;;;4.05;0.98;;;;;;;18.61;53.64;99624.00;4997593;28;20046;-47
2023/07/04 11:11:50;;;;;;;5.20;2.65;;;;;;;18.62;53.59;99614.38;5000169;28;20950;-50
2023/07/04 11:14:24;;;;;;;4.82;0.85;;;;;;;18.61;53.74;99617.94;4997542;28;20391;-47
2023/07/04 11:16:54;;;;;;;2.20;0.70;;;;;;;18.63;53.49;99616.06;4992656;28;20054;-48
2023/07/04 11:19:25;;;;;;;3.13;0.80;;;;;;;18.66;53.75;99622.94;5029102;28;20053;-52
2023/07/04 11:24:44;;;;;;;2.03;0.88;;;;;;;18.72;53.14;99626.19;5002011;28;20397;-49
2023/07/04 11:27:17;;;;;;;3.80;1.00;;;;;;;18.79;53.53;99631.16;4982420;28;20060;-44
2023/07/04 11:35:16;;;;;;;3.72;2.85;;;;;;;18.92;53.37;99629.69;5028710;28;21002;-47
2023/07/04 11:37:52;;;;;;;1.67;0.63;;;;;;;18.94;53.13;99630.47;5019766;28;20050;-46
2023/07/04 11:43:04;;;;;;;3.47;0.88;;;;;;;18.98;52.17;99629.41;5086336;27;20398;-50
2023/07/04 11:45:32;;;;;;;2.90;0.85;;;;;;;18.95;52.00;99621.66;5084444;28;20484;-46
2023/07/04 11:50:47;;;;;;;2.83;1.67;;;;;;;19.04;52.23;99625.66;5023480;27;20410;-48
2023/07/04 11:53:18;;;;;;;2.03;1.83;;;;;;;19.08;51.50;99629.03;4996677;28;20042;-48
2023/07/04 11:56:05;;;;;;;1.63;0.40;;;;;;;19.02;51.46;99617.84;5000616;28;20536;-43
2023/07/04 11:58:32;;;;;;;2.80;2.45;;;;;;;19.08;51.14;99618.56;4997081;28;20398;-42
2023/07/04 12:01:02;;;;;;;3.53;2.15;;;;;;;19.13;51.03;99622.66;4992841;28;20054;-52
2023/07/04 12:03:49;;;;;;;2.33;2.13;;;;;;;19.18;50.46;99627.69;4998373;28;20675;-49
2023/07/04 12:09:25;;;;;;;1.70;0.93;;;;;;;19.48;50.42;99629.81;5093744;27;20445;-46
2023/07/04 12:11:54;;;;;;;1.70;0.93;;;;;;;19.62;50.57;99626.56;5056455;28;20087;-48
2023/07/04 12:14:22;;;;;;;1.73;0.77;;;;;;;19.66;49.95;99627.28;5055686;28;20049;-47
2023/07/04 12:16:49;;;;;;;1.45;1.00;;;;;;;19.64;49.85;99623.84;5058916;28;20056;-44
2023/07/04 12:19:17;;;;;;;2.97;0.70;;;;;;;19.59;49.91;99626.69;5057022;28;20154;-45
2023/07/04 12:21:47;;;;;;;1.40;0.88;;;;;;;19.57;50.26;99623.31;5055302;28;20502;-51
2023/07/04 12:24:19;;;;;;;2.92;0.80;;;;;;;19.52;50.44;99623.50;5072264;28;20041;-44
2023/07/04 12:26:56;;;;;;;3.58;1.00;;;;;;;19.47;50.61;99603.63;5073264;28;20653;-50
2023/07/04 12:29:23;;;;;;;2.72;1.42;;;;;;;19.50;51.15;99607.00;5073372;28;20044;-46
2023/07/04 12:32:15;;;;;;;5.45;1.70;;;;;;;19.57;51.19;99606.69;5060097;28;20080;-46
2023/07/04 12:34:42;;;;;;;2.35;1.33;;;;;;;19.61;51.47;99597.72;5055224;28;20045;-45
2023/07/04 12:37:19;;;;;;;3.85;1.40;;;;;;;19.67;51.61;99596.59;5057468;28;20383;-46
2023/07/04 12:39:48;;;;;;;4.30;1.20;;;;;;;19.66;51.75;99601.00;5055429;28;20049;-40
2023/07/04 12:42:25;;;;;;;2.70;1.10;;;;;;;19.64;51.70;99602.84;5054368;28;20065;-43
2023/07/04 12:44:53;;;;;;;2.97;1.15;;;;;;;19.69;52.20;99594.75;5049102;28;20056;-44